Time;durP1;ratioP1;P1;durP2;ratioP2;P2;SDS_P1;SDS_P2;PMS_P1;PMS_P2;Temp;Humidity;BMP_temperature;BMP_pressure;BME280_temperature;BME280_humidity;BME280_pressure;Samples;Min_cycle;Max_cycle;Signal;HPM_P1;HPM_P2
2023/11/27 00:00:30;;;;;;;11.47;4.40;;;3.70;99.90;;;;;;4932972;29;20235;-66
2023/11/27 00:02:56;;;;;;;12.33;4.40;;;3.70;99.90;;;;;;4933992;29;20191;-65
2023/11/27 00:05:22;;;;;;;11.73;4.50;;;3.70;99.90;;;;;;4933773;29;20187;-66
2023/11/27 00:07:48;;;;;;;14.13;4.73;;;3.70;99.90;;;;;;4933799;29;20604;-66
2023/11/27 00:10:14;;;;;;;13.53;4.87;;;3.60;99.90;;;;;;4932719;29;20223;-65
2023/11/27 00:12:39;;;;;;;11.83;4.53;;;3.60;99.90;;;;;;4933870;29;20195;-65
2023/11/27 00:15:05;;;;;;;9.53;4.30;;;3.70;99.90;;;;;;4933713;29;20187;-66
2023/11/27 00:17:31;;;;;;;10.83;4.10;;;3.70;99.90;;;;;;4933716;29;20242;-65
2023/11/27 00:19:56;;;;;;;12.37;4.13;;;3.70;99.90;;;;;;4932772;29;20227;-65
2023/11/27 00:22:23;;;;;;;12.67;3.90;;;3.70;99.90;;;;;;4932757;29;20279;-66
2023/11/27 00:24:48;;;;;;;12.67;4.57;;;3.70;99.90;;;;;;4933675;29;20266;-65
2023/11/27 00:27:14;;;;;;;10.07;4.40;;;3.70;99.90;;;;;;4933388;29;20660;-64
2023/11/27 00:29:40;;;;;;;13.13;4.23;;;3.60;99.90;;;;;;4932852;29;20185;-66
2023/11/27 00:32:06;;;;;;;12.87;4.43;;;3.60;99.90;;;;;;4933452;29;20699;-66
2023/11/27 00:34:31;;;;;;;9.63;4.30;;;3.60;99.90;;;;;;4933280;29;20191;-66
2023/11/27 00:36:57;;;;;;;14.87;5.20;;;3.60;99.90;;;;;;4933400;29;20194;-66
2023/11/27 00:39:23;;;;;;;11.07;4.87;;;3.60;99.90;;;;;;4932591;29;20197;-65
2023/11/27 00:41:48;;;;;;;12.43;5.60;;;3.60;99.90;;;;;;4933205;29;20211;-66
2023/11/27 00:44:14;;;;;;;14.63;5.33;;;3.70;99.90;;;;;;4933136;29;20278;-66
2023/11/27 00:46:40;;;;;;;12.73;5.17;;;3.60;99.90;;;;;;4933324;29;20270;-66
2023/11/27 00:49:07;;;;;;;12.07;4.93;;;3.60;99.90;;;;;;4933054;29;20183;-65
2023/11/27 00:51:32;;;;;;;18.47;4.90;;;3.50;99.90;;;;;;4932913;29;20280;-65
2023/11/27 00:53:58;;;;;;;15.20;5.47;;;3.50;99.90;;;;;;4933193;29;20191;-65
2023/11/27 00:56:24;;;;;;;9.17;4.10;;;3.50;99.90;;;;;;4932966;29;20194;-65
2023/11/27 00:58:50;;;;;;;15.27;5.07;;;3.50;99.90;;;;;;4947877;29;20270;-65
2023/11/27 01:01:16;;;;;;;8.37;4.60;;;3.40;99.90;;;;;;4931972;29;20657;-64
2023/11/27 01:03:42;;;;;;;14.00;4.37;;;3.40;99.90;;;;;;4933957;29;20183;-67
2023/11/27 01:06:14;;;;;;;12.73;4.53;;;3.30;99.90;;;;;;4933502;29;20183;-66
2023/11/27 01:08:41;;;;;;;11.37;4.50;;;3.40;99.90;;;;;;4933678;29;20186;-65
2023/11/27 01:11:07;;;;;;;11.77;4.73;;;3.40;99.90;;;;;;4932596;29;20298;-68
2023/11/27 01:13:33;;;;;;;10.93;4.43;;;3.40;99.90;;;;;;4933326;29;20270;-67
2023/11/27 01:15:58;;;;;;;12.37;4.27;;;3.40;99.90;;;;;;4933478;29;20270;-67
2023/11/27 01:18:24;;;;;;;10.23;4.67;;;3.40;99.90;;;;;;4933189;29;20656;-68
2023/11/27 01:20:50;;;;;;;12.20;4.83;;;3.40;99.90;;;;;;4932331;29;20707;-67
2023/11/27 01:23:15;;;;;;;10.33;4.57;;;3.40;99.90;;;;;;4933271;29;20183;-66
2023/11/27 01:25:41;;;;;;;9.57;4.50;;;3.50;99.90;;;;;;4933284;29;20234;-67
2023/11/27 01:28:08;;;;;;;12.27;4.67;;;3.40;99.90;;;;;;4933427;29;20708;-67
2023/11/27 01:30:34;;;;;;;8.70;4.77;;;3.40;99.90;;;;;;4932568;29;20589;-66
2023/11/27 01:32:59;;;;;;;13.70;4.53;;;3.30;99.90;;;;;;4933256;29;20187;-68
2023/11/27 01:35:25;;;;;;;13.60;5.33;;;3.30;99.90;;;;;;4932983;29;20274;-66
2023/11/27 01:37:50;;;;;;;11.23;5.23;;;3.20;99.90;;;;;;4947603;29;20283;-67
2023/11/27 01:40:16;;;;;;;13.87;5.70;;;3.30;99.90;;;;;;4932174;29;20229;-66
2023/11/27 01:42:42;;;;;;;16.27;6.00;;;3.20;99.90;;;;;;4933675;29;20696;-67
2023/11/27 01:45:07;;;;;;;13.33;5.67;;;3.20;99.90;;;;;;4933144;29;20202;-67
2023/11/27 01:47:34;;;;;;;12.20;5.57;;;3.20;99.90;;;;;;4933266;29;20695;-68
2023/11/27 01:50:00;;;;;;;13.83;5.33;;;3.20;99.90;;;;;;4932417;29;20203;-67
2023/11/27 01:52:27;;;;;;;11.07;5.47;;;3.20;99.90;;;;;;4932824;29;20187;-67
2023/11/27 01:54:54;;;;;;;10.03;5.60;;;3.30;99.90;;;;;;4932877;29;20189;-68
2023/11/27 01:57:22;;;;;;;17.80;6.50;;;3.30;99.90;;;;;;4932520;29;20187;-66
2023/11/27 01:59:51;;;;;;;14.70;6.63;;;3.40;99.90;;;;;;4932104;29;20206;-67
2023/11/27 02:02:17;;;;;;;12.57;6.40;;;3.30;99.90;;;;;;4932854;29;20207;-67
2023/11/27 02:04:42;;;;;;;14.43;5.80;;;3.30;99.90;;;;;;4947476;29;20657;-66
2023/11/27 02:07:10;;;;;;;13.53;5.97;;;3.30;99.90;;;;;;4932798;29;20175;-67
2023/11/27 02:09:36;;;;;;;15.80;6.20;;;3.30;99.90;;;;;;4924563;29;20199;-67
2023/11/27 02:12:01;;;;;;;14.73;5.87;;;3.30;99.90;;;;;;4932581;29;20187;-67
2023/11/27 02:14:27;;;;;;;18.37;6.80;;;3.30;99.90;;;;;;4935004;29;20194;-67
2023/11/27 02:16:52;;;;;;;11.23;6.50;;;3.20;99.90;;;;;;4936127;29;20191;-66
2023/11/27 02:19:18;;;;;;;12.63;6.17;;;3.20;99.90;;;;;;4935178;29;20211;-67
2023/11/27 02:21:45;;;;;;;16.47;6.77;;;3.20;99.90;;;;;;4935764;29;20202;-68
2023/11/27 02:24:11;;;;;;;15.53;6.13;;;3.30;99.90;;;;;;4936187;29;20694;-67
2023/11/27 02:26:37;;;;;;;11.80;5.90;;;3.30;99.90;;;;;;4936083;29;20175;-66
2023/11/27 02:29:03;;;;;;;14.70;6.80;;;3.10;99.90;;;;;;4936243;29;20586;-67
2023/11/27 02:31:29;;;;;;;17.60;7.73;;;3.10;99.90;;;;;;4934837;29;20226;-67
2023/11/27 02:33:54;;;;;;;15.47;7.43;;;3.20;99.90;;;;;;4935945;29;20183;-67
2023/11/27 02:36:21;;;;;;;15.30;7.27;;;3.20;99.90;;;;;;4935490;29;20274;-68
2023/11/27 02:38:46;;;;;;;21.47;7.80;;;3.20;99.90;;;;;;4935711;29;20194;-66
2023/11/27 02:41:12;;;;;;;16.23;7.30;;;3.20;99.90;;;;;;4934495;29;20214;-66
2023/11/27 02:43:38;;;;;;;13.67;7.10;;;3.20;99.90;;;;;;4950451;29;20539;-67
2023/11/27 02:46:05;;;;;;;16.50;6.57;;;3.20;99.90;;;;;;4935511;29;20666;-68
2023/11/27 02:48:30;;;;;;;11.53;6.50;;;3.20;99.90;;;;;;4935472;29;20176;-68
2023/11/27 02:50:56;;;;;;;16.83;6.90;;;3.20;99.90;;;;;;4934654;29;20203;-67
2023/11/27 02:53:22;;;;;;;13.27;6.67;;;3.20;99.90;;;;;;4935192;29;20564;-67
2023/11/27 02:55:47;;;;;;;15.70;7.10;;;3.20;99.90;;;;;;4935285;29;20194;-68
2023/11/27 02:58:13;;;;;;;18.20;7.10;;;3.20;99.90;;;;;;4935060;29;20278;-68
2023/11/27 03:00:38;;;;;;;16.33;7.07;;;3.20;99.90;;;;;;4934305;29;20627;-68
2023/11/27 03:03:04;;;;;;;13.37;6.97;;;3.20;99.90;;;;;;4935265;29;20235;-68
2023/11/27 03:05:30;;;;;;;17.97;6.47;;;3.20;99.90;;;;;;4934947;29;20181;-68
2023/11/27 03:07:57;;;;;;;13.50;6.57;;;3.20;99.90;;;;;;4934031;29;20214;-67
2023/11/27 03:10:23;;;;;;;17.73;7.13;;;3.20;99.90;;;;;;4934057;29;20214;-67
2023/11/27 03:12:48;;;;;;;14.23;6.37;;;3.20;99.90;;;;;;4933893;29;20195;-67
2023/11/27 03:15:15;;;;;;;16.20;6.90;;;3.10;99.90;;;;;;4933881;29;20187;-67
2023/11/27 03:17:41;;;;;;;13.67;6.50;;;3.10;99.90;;;;;;4934985;29;20183;-67
2023/11/27 03:20:08;;;;;;;14.33;7.00;;;3.00;99.90;;;;;;4934089;29;20219;-68
2023/11/27 03:22:34;;;;;;;10.73;5.93;;;3.00;99.90;;;;;;4934757;29;20184;-66
2023/11/27 03:24:59;;;;;;;15.43;6.63;;;3.00;99.90;;;;;;4934678;29;20182;-68
2023/11/27 03:27:26;;;;;;;13.47;6.70;;;3.00;99.90;;;;;;4934501;29;20179;-66
2023/11/27 03:29:51;;;;;;;12.87;6.33;;;3.00;99.90;;;;;;4933755;29;20210;-68
2023/11/27 03:32:17;;;;;;;10.77;6.20;;;3.10;99.90;;;;;;4934446;29;20235;-68
2023/11/27 03:34:43;;;;;;;13.60;6.80;;;3.10;99.90;;;;;;4934658;29;20537;-67
2023/11/27 03:37:09;;;;;;;10.67;6.47;;;3.10;99.90;;;;;;4934551;29;20187;-67
2023/11/27 03:39:36;;;;;;;17.90;6.10;;;3.20;99.90;;;;;;4926026;29;20203;-68
2023/11/27 03:42:01;;;;;;;14.80;6.70;;;3.10;99.90;;;;;;4934204;29;20210;-67
2023/11/27 03:44:27;;;;;;;17.77;6.70;;;3.20;99.90;;;;;;4934238;29;20183;-67
2023/11/27 03:46:53;;;;;;;12.43;6.23;;;3.10;99.90;;;;;;4934302;29;20655;-67
2023/11/27 03:49:18;;;;;;;13.97;6.60;;;3.10;99.90;;;;;;4933443;29;20699;-66
2023/11/27 03:51:44;;;;;;;14.07;5.87;;;3.10;99.90;;;;;;4934063;29;20206;-67
2023/11/27 03:54:12;;;;;;;14.77;6.50;;;3.10;99.90;;;;;;4932042;29;20314;-68
2023/11/27 03:56:38;;;;;;;10.37;5.83;;;3.10;99.90;;;;;;4934300;29;20604;-67
2023/11/27 03:59:04;;;;;;;11.87;5.73;;;3.10;99.90;;;;;;4934248;29;20183;-67
2023/11/27 04:01:30;;;;;;;13.43;6.17;;;3.10;99.90;;;;;;4933556;29;20221;-67
2023/11/27 04:03:55;;;;;;;10.83;6.00;;;3.10;99.90;;;;;;4933993;29;20183;-67
2023/11/27 04:06:26;;;;;;;12.73;6.00;;;3.00;99.90;;;;;;4933925;29;20187;-67
2023/11/27 04:08:51;;;;;;;12.17;6.40;;;3.10;99.90;;;;;;4934144;29;20190;-67
2023/11/27 04:11:18;;;;;;;13.70;6.03;;;3.10;99.90;;;;;;4932968;29;20215;-67
2023/11/27 04:13:44;;;;;;;15.57;5.63;;;3.20;99.90;;;;;;4933790;29;20187;-67
2023/11/27 04:16:10;;;;;;;15.77;6.10;;;3.20;99.90;;;;;;4933881;29;20195;-67
2023/11/27 04:18:36;;;;;;;18.40;6.90;;;3.20;99.90;;;;;;4924893;29;20180;-67
2023/11/27 04:21:02;;;;;;;11.97;6.07;;;3.20;99.90;;;;;;4933090;29;20211;-67
2023/11/27 04:23:28;;;;;;;21.57;7.33;;;3.20;99.90;;;;;;4933712;29;20651;-67
2023/11/27 04:25:54;;;;;;;18.63;7.07;;;3.20;99.90;;;;;;4933632;29;20258;-67
2023/11/27 04:28:19;;;;;;;18.27;7.00;;;3.20;99.90;;;;;;4933997;29;20194;-66
2023/11/27 04:30:46;;;;;;;15.33;6.73;;;3.20;99.90;;;;;;4931581;29;20290;-66
2023/11/27 04:33:12;;;;;;;19.70;7.17;;;3.20;99.90;;;;;;4933354;29;20210;-67
2023/11/27 04:35:39;;;;;;;13.33;6.37;;;3.20;99.90;;;;;;4933403;29;20711;-67
2023/11/27 04:38:04;;;;;;;15.30;6.50;;;3.20;99.90;;;;;;4933526;29;20278;-68
2023/11/27 04:40:30;;;;;;;12.03;6.60;;;3.20;99.90;;;;;;4932425;29;20321;-66
2023/11/27 04:42:56;;;;;;;14.43;6.10;;;3.20;99.90;;;;;;4933612;29;20760;-66
2023/11/27 04:45:22;;;;;;;13.73;5.90;;;3.20;99.90;;;;;;4933493;29;20191;-64
2023/11/27 04:47:47;;;;;;;13.97;5.60;;;3.20;99.90;;;;;;4933492;29;20187;-67
2023/11/27 04:50:13;;;;;;;15.20;6.97;;;3.10;99.90;;;;;;4932298;29;20265;-68
2023/11/27 04:52:39;;;;;;;16.93;7.27;;;3.00;99.90;;;;;;4933300;29;20269;-68
2023/11/27 04:55:05;;;;;;;13.27;6.10;;;3.10;99.90;;;;;;4933204;29;20194;-67
2023/11/27 04:57:31;;;;;;;11.23;5.97;;;3.10;99.90;;;;;;4933071;29;20183;-68
2023/11/27 04:59:58;;;;;;;14.17;6.23;;;3.10;99.90;;;;;;4932490;29;20676;-68
2023/11/27 05:02:24;;;;;;;16.93;5.80;;;3.20;99.90;;;;;;4931929;29;20194;-66
2023/11/27 05:04:49;;;;;;;15.23;5.60;;;3.20;99.90;;;;;;4933366;29;20188;-66
2023/11/27 05:07:15;;;;;;;14.37;5.57;;;3.20;99.90;;;;;;4933491;29;20299;-67
2023/11/27 05:09:40;;;;;;;18.50;5.30;;;3.20;99.90;;;;;;4947304;29;20557;-67
2023/11/27 05:12:06;;;;;;;12.00;5.47;;;3.30;99.90;;;;;;4933340;29;20186;-66
2023/11/27 05:14:32;;;;;;;14.40;5.40;;;3.20;99.90;;;;;;4933254;29;20188;-67
2023/11/27 05:16:58;;;;;;;10.27;5.47;;;3.20;99.90;;;;;;4933199;29;20716;-67
2023/11/27 05:19:23;;;;;;;11.77;5.57;;;3.10;99.90;;;;;;4932180;29;20874;-67
2023/11/27 05:21:50;;;;;;;9.03;5.17;;;3.00;99.90;;;;;;4933382;29;20356;-68
2023/11/27 05:24:16;;;;;;;10.87;5.73;;;3.00;99.90;;;;;;4933057;29;20184;-67
2023/11/27 05:26:43;;;;;;;14.13;5.40;;;3.10;99.90;;;;;;4932946;29;20176;-67
2023/11/27 05:29:09;;;;;;;14.33;5.60;;;3.10;99.90;;;;;;4932389;29;20695;-68
2023/11/27 05:31:34;;;;;;;15.50;5.80;;;3.00;99.90;;;;;;4932515;29;20211;-68
2023/11/27 05:34:00;;;;;;;17.60;6.23;;;2.90;99.90;;;;;;4933047;29;20179;-66
2023/11/27 05:36:26;;;;;;;12.40;5.60;;;3.00;99.90;;;;;;4932671;29;20202;-67
2023/11/27 05:38:51;;;;;;;14.37;5.73;;;3.00;99.90;;;;;;4933031;29;20234;-67
2023/11/27 05:41:18;;;;;;;13.50;5.27;;;3.00;99.90;;;;;;4932005;29;20223;-67
2023/11/27 05:43:44;;;;;;;12.07;5.73;;;3.00;99.90;;;;;;4932866;29;20179;-67
2023/11/27 05:46:10;;;;;;;17.97;6.67;;;3.10;99.90;;;;;;4931656;29;20184;-68
2023/11/27 05:48:36;;;;;;;13.37;5.63;;;3.00;99.90;;;;;;4932312;29;20182;-67
2023/11/27 05:51:02;;;;;;;16.83;5.47;;;3.00;99.90;;;;;;4935382;29;20195;-68
2023/11/27 05:53:28;;;;;;;11.83;5.93;;;3.10;99.90;;;;;;4936238;29;20620;-68
2023/11/27 05:55:53;;;;;;;17.63;6.00;;;3.10;99.90;;;;;;4936296;29;20197;-67
2023/11/27 05:58:20;;;;;;;13.13;5.77;;;3.10;99.90;;;;;;4935073;29;20668;-67
2023/11/27 06:00:45;;;;;;;24.10;7.80;;;3.00;99.90;;;;;;4934396;29;20213;-68
2023/11/27 06:03:12;;;;;;;21.83;6.50;;;3.00;99.90;;;;;;4936182;29;20676;-67
2023/11/27 06:05:37;;;;;;;18.67;6.47;;;3.00;99.90;;;;;;4936146;29;20190;-67
2023/11/27 06:08:03;;;;;;;17.00;5.37;;;3.00;99.90;;;;;;4936045;29;20183;-67
2023/11/27 06:10:29;;;;;;;16.47;4.97;;;3.00;99.90;;;;;;4935261;29;20262;-67
2023/11/27 06:12:55;;;;;;;12.73;5.03;;;3.00;99.90;;;;;;4935799;29;20183;-67
2023/11/27 06:15:21;;;;;;;11.80;4.70;;;3.00;99.90;;;;;;4935877;29;20179;-67
2023/11/27 06:17:46;;;;;;;18.87;5.10;;;3.00;99.90;;;;;;4935925;29;20194;-67
2023/11/27 06:20:14;;;;;;;16.30;4.83;;;3.00;99.90;;;;;;4934905;29;20452;-67
2023/11/27 06:22:39;;;;;;;9.30;4.87;;;2.90;99.90;;;;;;4935871;29;20175;-67
2023/11/27 06:25:09;;;;;;;14.57;5.10;;;3.00;99.90;;;;;;4935843;29;20238;-67
2023/11/27 06:27:35;;;;;;;11.43;5.77;;;3.00;99.90;;;;;;4935546;29;20171;-68
2023/11/27 06:30:01;;;;;;;11.73;4.90;;;3.00;99.90;;;;;;4934939;29;20665;-68
2023/11/27 06:32:26;;;;;;;18.43;5.57;;;3.00;99.90;;;;;;4935443;29;20217;-67
2023/11/27 06:34:52;;;;;;;11.73;5.20;;;2.90;99.90;;;;;;4935611;29;20243;-67
2023/11/27 06:37:18;;;;;;;10.63;5.17;;;2.90;99.90;;;;;;4935481;29;20187;-66
2023/11/27 06:39:45;;;;;;;17.47;6.13;;;2.90;99.90;;;;;;4934759;29;20210;-66
2023/11/27 06:42:14;;;;;;;12.33;5.17;;;3.00;99.90;;;;;;4935160;29;20675;-66
2023/11/27 06:44:41;;;;;;;9.93;5.30;;;3.00;99.90;;;;;;4928143;29;20186;-66
2023/11/27 06:47:07;;;;;;;17.57;6.13;;;2.90;99.90;;;;;;4935611;29;20191;-65
2023/11/27 06:49:33;;;;;;;16.80;6.70;;;3.00;99.90;;;;;;4933433;29;20187;-67
2023/11/27 06:51:59;;;;;;;14.13;6.53;;;3.00;99.90;;;;;;4935236;29;20251;-66
2023/11/27 06:54:25;;;;;;;18.83;5.97;;;3.00;99.90;;;;;;4935234;29;20187;-65
2023/11/27 06:56:51;;;;;;;12.63;5.60;;;3.10;99.90;;;;;;4935212;29;20697;-65
2023/11/27 06:59:18;;;;;;;10.37;5.70;;;3.00;99.90;;;;;;4934190;29;20185;-65
2023/11/27 07:01:43;;;;;;;15.67;5.73;;;3.00;99.90;;;;;;4935085;29;20215;-65
2023/11/27 07:04:09;;;;;;;12.10;5.47;;;3.00;99.90;;;;;;4935201;29;20293;-65
2023/11/27 07:06:37;;;;;;;19.43;6.23;;;3.00;99.90;;;;;;4935018;29;20210;-65
2023/11/27 07:09:06;;;;;;;14.37;6.20;;;3.00;99.90;;;;;;4934965;29;20191;-65
2023/11/27 07:11:33;;;;;;;16.63;5.83;;;3.00;99.90;;;;;;4934046;29;20215;-66
2023/11/27 07:13:59;;;;;;;17.77;7.00;;;3.00;99.90;;;;;;4934836;29;20202;-66
2023/11/27 07:16:26;;;;;;;25.03;10.47;;;3.10;99.90;;;;;;4934833;29;20191;-66
2023/11/27 07:18:52;;;;;;;21.47;8.27;;;3.10;99.90;;;;;;4934795;29;20319;-66
2023/11/27 07:21:18;;;;;;;14.77;6.97;;;3.10;99.90;;;;;;4933872;29;20778;-66
2023/11/27 07:23:44;;;;;;;10.37;5.00;;;3.10;99.90;;;;;;4934730;29;20198;-68
2023/11/27 07:26:10;;;;;;;15.60;5.23;;;3.00;99.90;;;;;;4934637;29;20179;-66
2023/11/27 07:28:42;;;;;;;17.10;6.07;;;3.00;99.90;;;;;;4934065;29;20179;-66
2023/11/27 07:31:09;;;;;;;14.17;6.83;;;3.00;99.90;;;;;;4932804;29;20254;-66
2023/11/27 07:33:35;;;;;;;15.40;6.23;;;3.10;99.90;;;;;;4933361;29;20314;-64
2023/11/27 07:36:01;;;;;;;16.87;6.17;;;3.00;99.90;;;;;;4933928;29;20198;-65
2023/11/27 07:38:28;;;;;;;11.07;4.87;;;3.00;99.90;;;;;;4948499;29;20188;-65
2023/11/27 07:40:56;;;;;;;22.30;7.07;;;3.00;99.90;;;;;;4932771;29;20215;-65
2023/11/27 07:43:21;;;;;;;10.97;4.10;;;3.00;99.90;;;;;;4933611;29;20187;-65
2023/11/27 07:45:47;;;;;;;11.00;3.97;;;2.90;99.90;;;;;;4933715;29;20182;-65
2023/11/27 07:48:12;;;;;;;9.10;3.73;;;2.90;99.90;;;;;;4933715;29;20229;-65
2023/11/27 07:50:40;;;;;;;9.80;4.50;;;3.00;99.90;;;;;;4925063;29;20711;-65
2023/11/27 07:53:05;;;;;;;9.13;4.10;;;3.00;99.90;;;;;;4933663;29;20581;-65
2023/11/27 07:55:32;;;;;;;11.67;4.00;;;3.00;99.90;;;;;;4933484;29;20273;-66
2023/11/27 07:57:57;;;;;;;16.07;8.40;;;3.00;99.90;;;;;;4933212;29;20193;-66
2023/11/27 08:00:26;;;;;;;15.17;5.17;;;3.00;99.90;;;;;;4932499;29;20219;-65
2023/11/27 08:02:53;;;;;;;9.43;4.97;;;3.00;99.90;;;;;;4933269;29;20199;-65
2023/11/27 08:05:20;;;;;;;11.83;4.30;;;3.00;99.90;;;;;;4933238;29;20617;-65
2023/11/27 08:07:47;;;;;;;10.07;4.80;;;3.10;99.90;;;;;;4933678;29;20588;-65
2023/11/27 08:10:15;;;;;;;12.10;5.63;;;3.10;99.90;;;;;;4932265;29;20243;-65
2023/11/27 08:12:42;;;;;;;10.30;4.27;;;3.00;99.90;;;;;;4932597;29;20215;-65
2023/11/27 08:15:08;;;;;;;9.43;4.50;;;3.10;99.90;;;;;;4933103;29;20198;-65
2023/11/27 08:17:34;;;;;;;10.27;5.10;;;3.10;99.90;;;;;;4933051;29;20597;-65
2023/11/27 08:20:04;;;;;;;15.93;6.80;;;3.10;99.90;;;;;;4932251;29;20211;-65
2023/11/27 08:22:30;;;;;;;11.33;3.87;;;3.20;99.90;;;;;;4932986;29;20191;-65
2023/11/27 08:24:57;;;;;;;14.87;5.30;;;3.20;99.90;;;;;;4933027;29;20183;-65
2023/11/27 08:27:26;;;;;;;10.37;3.50;;;3.30;99.90;;;;;;4932792;29;20179;-65
2023/11/27 08:29:52;;;;;;;12.30;3.90;;;3.30;99.90;;;;;;4932072;29;20278;-65
2023/11/27 08:32:17;;;;;;;9.07;3.80;;;3.40;99.90;;;;;;4932776;29;20615;-65
2023/11/27 08:34:43;;;;;;;7.50;4.23;;;3.30;99.90;;;;;;4932844;29;20218;-65
2023/11/27 08:37:09;;;;;;;12.97;4.83;;;3.30;99.90;;;;;;4937222;29;20285;-65
2023/11/27 08:39:36;;;;;;;8.73;4.17;;;3.40;99.90;;;;;;4938005;29;20325;-65
2023/11/27 08:42:02;;;;;;;10.40;5.87;;;3.40;99.90;;;;;;4934980;29;20210;-65
2023/11/27 08:44:28;;;;;;;11.73;4.13;;;3.40;99.90;;;;;;4938102;29;20199;-65
2023/11/27 08:46:53;;;;;;;10.33;3.63;;;3.40;99.90;;;;;;4932618;29;20189;-65
2023/11/27 08:49:19;;;;;;;8.93;4.00;;;3.30;99.90;;;;;;4931930;29;20189;-65
2023/11/27 08:51:45;;;;;;;8.93;3.20;;;3.20;99.90;;;;;;4932580;29;20203;-65
2023/11/27 08:54:11;;;;;;;7.70;3.37;;;3.20;99.90;;;;;;4932790;29;20230;-65
2023/11/27 08:56:40;;;;;;;10.27;3.70;;;3.20;99.90;;;;;;4932431;29;20187;-65
2023/11/27 08:59:06;;;;;;;76.50;22.27;;;3.10;99.90;;;;;;4932684;29;20265;-64
2023/11/27 09:01:31;;;;;;;34.87;22.90;;;3.10;99.90;;;;;;4931682;29;20732;-64
2023/11/27 09:03:57;;;;;;;8.73;5.13;;;3.10;99.90;;;;;;4932556;29;20183;-64
2023/11/27 09:06:23;;;;;;;7.03;4.53;;;3.10;99.90;;;;;;4932527;29;20634;-64
2023/11/27 09:08:48;;;;;;;5.57;3.43;;;3.10;99.90;;;;;;4932644;29;20190;-64
2023/11/27 09:11:14;;;;;;;12.07;6.97;;;3.00;99.90;;;;;;4931282;29;20723;-64
2023/11/27 09:13:40;;;;;;;4.07;2.53;;;3.00;99.90;;;;;;4932528;29;20193;-64
2023/11/27 09:16:06;;;;;;;7.73;4.80;;;2.90;99.90;;;;;;4932619;29;20183;-64
2023/11/27 09:18:32;;;;;;;12.27;5.53;;;3.00;99.90;;;;;;4932360;29;20562;-64
2023/11/27 09:20:58;;;;;;;21.73;13.20;;;2.70;99.90;;;;;;4931609;29;20666;-64
2023/11/27 09:23:24;;;;;;;2.97;2.00;;;2.70;99.90;;;;;;4933815;29;20294;-64
2023/11/27 09:25:49;;;;;;;6.17;2.30;;;2.80;99.90;;;;;;4932835;29;20561;-64
2023/11/27 09:28:15;;;;;;;5.23;2.90;;;2.80;99.90;;;;;;4934807;29;20676;-63
2023/11/27 09:30:40;;;;;;;4.37;2.40;;;2.80;99.90;;;;;;4934261;29;20292;-63
2023/11/27 09:33:06;;;;;;;11.17;2.50;;;2.80;99.90;;;;;;4933852;29;20270;-64
2023/11/27 09:35:32;;;;;;;4.87;2.10;;;2.70;99.90;;;;;;4934734;29;20183;-64
2023/11/27 09:37:57;;;;;;;3.83;1.90;;;2.70;99.90;;;;;;4934899;29;20710;-64
2023/11/27 09:40:23;;;;;;;6.43;1.93;;;2.70;99.90;;;;;;4934562;29;20708;-64
2023/11/27 09:42:49;;;;;;;3.63;1.90;;;2.70;99.90;;;;;;4935824;29;20564;-64
2023/11/27 09:45:16;;;;;;;3.57;2.53;;;2.70;99.90;;;;;;4935707;29;20190;-63
2023/11/27 09:47:44;;;;;;;6.67;2.33;;;2.70;99.90;;;;;;4935968;29;20264;-64
2023/11/27 09:50:12;;;;;;;3.30;1.90;;;2.60;99.90;;;;;;4935073;29;20262;-63
2023/11/27 09:52:53;;;;;;;3.97;2.07;;;2.50;99.90;;;;;;4935739;29;20262;-63
2023/11/27 09:55:22;;;;;;;10.17;3.20;;;2.60;99.90;;;;;;4935752;29;20187;-64
2023/11/27 09:57:49;;;;;;;5.97;2.30;;;2.60;99.90;;;;;;4935640;29;20191;-64
2023/11/27 10:00:19;;;;;;;6.10;3.03;;;2.60;99.90;;;;;;4934876;29;20229;-63
2023/11/27 10:02:47;;;;;;;11.50;4.67;;;2.60;99.90;;;;;;4935624;29;20171;-63
2023/11/27 10:05:18;;;;;;;6.10;3.80;;;2.60;99.90;;;;;;4935674;29;20572;-63
2023/11/27 10:07:46;;;;;;;8.87;4.20;;;2.60;99.90;;;;;;4935491;29;20623;-63
2023/11/27 10:10:14;;;;;;;8.73;4.40;;;2.60;99.90;;;;;;4935019;29;20241;-63
2023/11/27 10:12:44;;;;;;;10.27;4.60;;;2.50;99.90;;;;;;4935441;29;20238;-63
2023/11/27 10:15:11;;;;;;;9.90;4.80;;;2.50;99.90;;;;;;4935645;29;20243;-63
2023/11/27 10:17:38;;;;;;;9.90;4.53;;;2.50;99.90;;;;;;4935366;29;20183;-65
2023/11/27 10:20:04;;;;;;;8.07;4.47;;;2.50;99.90;;;;;;4934380;29;20733;-64
2023/11/27 10:22:32;;;;;;;10.10;4.57;;;2.50;99.90;;;;;;4934920;29;20187;-64
2023/11/27 10:25:00;;;;;;;7.77;4.30;;;2.50;99.90;;;;;;4935153;29;20183;-63
2023/11/27 10:27:26;;;;;;;6.27;4.00;;;2.50;99.90;;;;;;4935133;29;20186;-63
2023/11/27 10:29:53;;;;;;;8.43;3.80;;;2.50;99.90;;;;;;4934418;29;20664;-63
2023/11/27 10:32:22;;;;;;;6.47;3.87;;;2.50;99.90;;;;;;4934294;29;20258;-64
2023/11/27 10:34:49;;;;;;;12.30;6.93;;;2.50;99.90;;;;;;4934171;29;20198;-64
2023/11/27 10:37:16;;;;;;;9.93;5.40;;;2.60;99.90;;;;;;4934799;29;20278;-64
2023/11/27 10:39:42;;;;;;;6.40;3.63;;;2.50;99.90;;;;;;4934209;29;20191;-64
2023/11/27 10:42:11;;;;;;;6.43;3.37;;;2.50;99.90;;;;;;4935006;29;20194;-63
2023/11/27 10:44:37;;;;;;;4.80;2.90;;;2.50;99.90;;;;;;4934739;29;20188;-64
2023/11/27 10:47:10;;;;;;;4.97;2.90;;;2.40;99.90;;;;;;4933775;29;20175;-63
2023/11/27 10:49:39;;;;;;;6.70;2.97;;;2.30;99.90;;;;;;4934065;29;20194;-63
2023/11/27 10:52:06;;;;;;;8.40;4.27;;;2.30;99.90;;;;;;4934755;29;20206;-62
2023/11/27 10:54:33;;;;;;;119.17;31.17;;;2.30;99.90;;;;;;4934567;29;20659;-64
2023/11/27 10:57:03;;;;;;;166.30;32.27;;;2.40;99.90;;;;;;4934385;29;20179;-63
2023/11/27 10:59:32;;;;;;;55.53;12.40;;;2.40;99.90;;;;;;4933694;29;20270;-65
2023/11/27 11:02:02;;;;;;;70.37;14.80;;;2.50;99.90;;;;;;4934477;29;20776;-63
2023/11/27 11:04:50;;;;;;;11.17;4.57;;;2.50;99.90;;;;;;4934403;29;20221;-63
2023/11/27 11:07:20;;;;;;;8.57;3.93;;;2.60;99.90;;;;;;4934459;29;20183;-63
2023/11/27 11:09:48;;;;;;;7.13;3.43;;;2.50;99.90;;;;;;4933812;29;20274;-65
2023/11/27 11:12:20;;;;;;;8.90;3.23;;;2.50;99.90;;;;;;4934161;29;20183;-65
2023/11/27 11:14:47;;;;;;;12.47;4.23;;;2.50;99.90;;;;;;4934372;29;20198;-63
2023/11/27 11:17:20;;;;;;;10.93;5.17;;;2.50;99.90;;;;;;4934213;29;20195;-63
2023/11/27 11:20:15;;;;;;;7.20;3.60;;;2.50;99.90;;;;;;4926293;29;20567;-62
2023/11/27 11:22:53;;;;;;;7.47;4.23;;;2.40;99.90;;;;;;4926345;29;20255;-64
2023/11/27 11:25:42;;;;;;;7.60;3.80;;;2.40;99.90;;;;;;4934126;29;20234;-64
2023/11/27 11:28:25;;;;;;;3.93;2.53;;;2.40;99.90;;;;;;4933925;29;20187;-63
2023/11/27 11:31:15;;;;;;;5.97;3.10;;;2.40;99.90;;;;;;4933081;29;20262;-63
2023/11/27 11:33:41;;;;;;;8.57;4.10;;;2.40;99.90;;;;;;4926220;29;20892;-64
2023/11/27 11:36:12;;;;;;;10.80;4.67;;;2.30;99.90;;;;;;4933709;29;20188;-63
2023/11/27 11:38:45;;;;;;;14.00;4.10;;;2.30;99.90;;;;;;4933825;29;20565;-63
2023/11/27 11:41:12;;;;;;;8.10;4.17;;;2.30;99.90;;;;;;4932934;29;20279;-63
2023/11/27 11:43:41;;;;;;;12.13;5.80;;;2.30;99.90;;;;;;4948238;29;20210;-64
2023/11/27 11:46:15;;;;;;;12.17;6.30;;;2.30;99.90;;;;;;4933890;29;20183;-63
2023/11/27 11:48:42;;;;;;;8.77;4.10;;;2.30;99.90;;;;;;4933899;29;20183;-64
2023/11/27 11:51:15;;;;;;;11.70;4.00;;;2.30;99.90;;;;;;4932689;29;20206;-63
2023/11/27 11:53:42;;;;;;;8.60;3.90;;;2.30;99.90;;;;;;4933503;29;20206;-64
2023/11/27 11:56:19;;;;;;;6.53;3.10;;;2.30;99.90;;;;;;4933737;29;20267;-63
2023/11/27 11:58:58;;;;;;;5.13;2.70;;;2.20;99.90;;;;;;4933589;29;20179;-64
2023/11/27 12:01:32;;;;;;;5.77;2.97;;;2.20;99.90;;;;;;4932443;29;20731;-62
2023/11/27 12:04:05;;;;;;;5.30;3.17;;;2.20;99.90;;;;;;4932882;29;20183;-63
2023/11/27 12:06:32;;;;;;;5.83;2.73;;;2.20;99.90;;;;;;4933264;29;20202;-65
2023/11/27 12:08:59;;;;;;;8.03;3.70;;;2.20;99.90;;;;;;4932787;29;20329;-63
2023/11/27 12:11:30;;;;;;;7.67;3.27;;;2.20;99.90;;;;;;4932087;29;20590;-63
2023/11/27 12:14:04;;;;;;;6.17;3.00;;;2.20;99.90;;;;;;4933176;29;20230;-63
2023/11/27 12:16:30;;;;;;;4.67;2.60;;;2.10;99.90;;;;;;4933686;29;20210;-62
2023/11/27 12:18:55;;;;;;;4.80;3.10;;;2.20;99.90;;;;;;4933171;29;20695;-64
2023/11/27 12:21:23;;;;;;;4.97;3.30;;;2.10;99.90;;;;;;4932305;29;20226;-63
2023/11/27 12:23:50;;;;;;;5.53;2.97;;;2.10;99.90;;;;;;4933156;29;20262;-63
2023/11/27 12:26:22;;;;;;;6.00;3.20;;;2.10;99.90;;;;;;4932733;29;20262;-61
2023/11/27 12:28:52;;;;;;;7.17;2.80;;;2.10;99.90;;;;;;4932990;29;20179;-63
2023/11/27 12:31:18;;;;;;;4.73;2.80;;;2.10;99.90;;;;;;4931864;29;20215;-64
2023/11/27 12:33:47;;;;;;;5.30;2.63;;;2.10;99.90;;;;;;4932885;29;20203;-64
2023/11/27 12:36:14;;;;;;;13.57;5.50;;;2.10;99.90;;;;;;4933081;29;20246;-65
2023/11/27 12:38:40;;;;;;;6.80;3.87;;;2.10;99.90;;;;;;4932766;29;20198;-64
2023/11/27 12:41:09;;;;;;;4.73;3.33;;;2.10;99.90;;;;;;4932048;29;20271;-63
2023/11/27 12:43:37;;;;;;;7.30;3.90;;;2.00;99.90;;;;;;4932572;29;20198;-64
2023/11/27 12:46:13;;;;;;;7.27;3.70;;;2.00;99.90;;;;;;4932552;29;20188;-63
2023/11/27 12:48:45;;;;;;;8.00;3.70;;;2.00;99.90;;;;;;4932538;29;20234;-63